Main page
METAR-TAF:

Airports :

Tehran, Iran

Mehrabad International Airport

latitude: 35-41N, longitude: 051-21E, elevation: 1204 m

Current weather observation

The report was made 15 minutes ago, at 05:00 UTC
Wind 10 kt from the West
Temperature 25°C
Humidity 11%
Pressure 1018 hPa
Visibility 10 km or more
no clouds below 1500 m and no cumulonimbus

METAR: OIII 270500Z 26010KT CAVOK 25/M08 Q1018 A3007 NOSIG

Time: 08:45 (05:15 UTC)

Forecast

The report was made 6 hours and 15 minutes ago, at 23:00 UTC
Forecast valid from 27 at 00 UTC to 28 at 06 UTC
Wind 8 kt from the West/Southwest
Visibility 10 km or more
no clouds below 1500 m and no cumulonimbus
Temporary
from 27 at 06 UTC to 27 at 12 UTC
Wind 14 kt from the Northwest

TAF: OIII 262300Z 2700/2806 24004MPS CAVOK TEMPO 2706/2712 32007MPS

METAR-TAF

Weather observations and forecasts of more than 4000 airports (METAR and TAF reports).

The available stations are represented by yellow and red dots on the map.

Hover mouse over dot to see the name of the station.

Then click to see weather observations and forecasts.

To change the map : click on the green buttons with a black cross to zoom in, on the green button with a dash to zoom out, or on the green arrows for adjacent maps.


METAR-TAF: